sensor_id;sensor_type;location;lat;lon;timestamp;P1;durP1;ratioP1;P2;durP2;ratioP2
53389;SDS011;39288;42.970;1.524;2024-02-15T00:00:22;10.63;;;4.47;;
53389;SDS011;39288;42.970;1.524;2024-02-15T00:01:25;13.60;;;4.45;;
53389;SDS011;39288;42.970;1.524;2024-02-15T00:02:26;6.60;;;3.67;;
53389;SDS011;39288;42.970;1.524;2024-02-15T00:03:26;10.80;;;5.30;;
53389;SDS011;39288;42.970;1.524;2024-02-15T00:04:27;9.00;;;5.67;;
53389;SDS011;39288;42.970;1.524;2024-02-15T00:05:27;5.50;;;3.47;;
53389;SDS011;39288;42.970;1.524;2024-02-15T00:06:28;7.70;;;4.47;;
53389;SDS011;39288;42.970;1.524;2024-02-15T00:07:28;8.37;;;3.27;;
53389;SDS011;39288;42.970;1.524;2024-02-15T00:08:29;6.70;;;3.30;;
53389;SDS011;39288;42.970;1.524;2024-02-15T00:09:30;5.68;;;3.10;;
53389;SDS011;39288;42.970;1.524;2024-02-15T00:10:30;7.67;;;3.30;;
53389;SDS011;39288;42.970;1.524;2024-02-15T00:11:31;8.67;;;3.80;;
53389;SDS011;39288;42.970;1.524;2024-02-15T00:12:32;7.13;;;3.65;;
53389;SDS011;39288;42.970;1.524;2024-02-15T00:13:33;10.37;;;3.10;;
53389;SDS011;39288;42.970;1.524;2024-02-15T00:14:33;6.70;;;3.17;;
53389;SDS011;39288;42.970;1.524;2024-02-15T00:15:34;8.15;;;2.85;;
53389;SDS011;39288;42.970;1.524;2024-02-15T00:16:36;9.45;;;3.30;;
53389;SDS011;39288;42.970;1.524;2024-02-15T00:17:37;5.60;;;3.23;;
53389;SDS011;39288;42.970;1.524;2024-02-15T00:18:37;7.00;;;3.30;;
53389;SDS011;39288;42.970;1.524;2024-02-15T00:19:38;5.73;;;3.37;;
53389;SDS011;39288;42.970;1.524;2024-02-15T00:20:41;8.15;;;4.03;;
53389;SDS011;39288;42.970;1.524;2024-02-15T00:21:43;6.38;;;3.40;;
53389;SDS011;39288;42.970;1.524;2024-02-15T00:22:44;6.70;;;2.90;;
53389;SDS011;39288;42.970;1.524;2024-02-15T00:23:45;5.70;;;3.00;;
53389;SDS011;39288;42.970;1.524;2024-02-15T00:24:45;5.63;;;3.20;;
53389;SDS011;39288;42.970;1.524;2024-02-15T00:25:46;7.80;;;3.38;;
53389;SDS011;39288;42.970;1.524;2024-02-15T00:26:47;5.67;;;2.70;;
53389;SDS011;39288;42.970;1.524;2024-02-15T00:27:48;5.03;;;3.23;;
53389;SDS011;39288;42.970;1.524;2024-02-15T00:28:48;6.23;;;3.07;;
53389;SDS011;39288;42.970;1.524;2024-02-15T00:29:49;4.17;;;2.70;;
53389;SDS011;39288;42.970;1.524;2024-02-15T00:30:49;4.20;;;3.03;;
53389;SDS011;39288;42.970;1.524;2024-02-15T00:31:50;6.33;;;3.23;;
53389;SDS011;39288;42.970;1.524;2024-02-15T00:32:50;3.80;;;2.67;;
53389;SDS011;39288;42.970;1.524;2024-02-15T00:33:51;6.13;;;3.47;;
53389;SDS011;39288;42.970;1.524;2024-02-15T00:34:51;5.97;;;3.37;;
53389;SDS011;39288;42.970;1.524;2024-02-15T00:35:51;6.23;;;2.87;;
53389;SDS011;39288;42.970;1.524;2024-02-15T00:36:52;4.23;;;2.90;;
53389;SDS011;39288;42.970;1.524;2024-02-15T00:37:53;7.10;;;3.70;;
53389;SDS011;39288;42.970;1.524;2024-02-15T00:38:53;6.10;;;3.17;;
53389;SDS011;39288;42.970;1.524;2024-02-15T00:39:53;7.43;;;3.60;;
53389;SDS011;39288;42.970;1.524;2024-02-15T00:40:54;6.87;;;3.07;;
53389;SDS011;39288;42.970;1.524;2024-02-15T00:41:54;5.00;;;2.87;;
53389;SDS011;39288;42.970;1.524;2024-02-15T00:42:55;4.90;;;2.30;;
53389;SDS011;39288;42.970;1.524;2024-02-15T00:43:55;6.23;;;3.30;;
53389;SDS011;39288;42.970;1.524;2024-02-15T00:44:56;5.47;;;2.63;;
53389;SDS011;39288;42.970;1.524;2024-02-15T00:45:56;18.90;;;3.13;;
53389;SDS011;39288;42.970;1.524;2024-02-15T00:46:57;5.93;;;2.90;;
53389;SDS011;39288;42.970;1.524;2024-02-15T00:47:57;5.10;;;2.90;;
53389;SDS011;39288;42.970;1.524;2024-02-15T00:48:57;4.77;;;3.03;;
53389;SDS011;39288;42.970;1.524;2024-02-15T00:51:00;9.40;;;4.22;;
53389;SDS011;39288;42.970;1.524;2024-02-15T00:52:00;7.97;;;5.07;;
53389;SDS011;39288;42.970;1.524;2024-02-15T00:53:00;6.37;;;3.30;;
53389;SDS011;39288;42.970;1.524;2024-02-15T00:54:01;9.13;;;4.07;;
53389;SDS011;39288;42.970;1.524;2024-02-15T00:55:02;6.00;;;3.17;;
53389;SDS011;39288;42.970;1.524;2024-02-15T00:56:03;7.00;;;4.23;;
53389;SDS011;39288;42.970;1.524;2024-02-15T00:57:04;5.83;;;4.00;;
53389;SDS011;39288;42.970;1.524;2024-02-15T00:58:04;9.37;;;3.73;;
53389;SDS011;39288;42.970;1.524;2024-02-15T00:59:05;7.60;;;3.20;;
53389;SDS011;39288;42.970;1.524;2024-02-15T01:00:05;5.80;;;2.97;;
53389;SDS011;39288;42.970;1.524;2024-02-15T01:01:09;6.40;;;3.35;;
53389;SDS011;39288;42.970;1.524;2024-02-15T01:02:10;7.07;;;3.75;;
53389;SDS011;39288;42.970;1.524;2024-02-15T01:03:11;5.43;;;3.22;;
53389;SDS011;39288;42.970;1.524;2024-02-15T01:04:12;3.97;;;2.80;;
53389;SDS011;39288;42.970;1.524;2024-02-15T01:05:12;7.17;;;3.63;;
53389;SDS011;39288;42.970;1.524;2024-02-15T01:06:15;9.95;;;4.22;;
53389;SDS011;39288;42.970;1.524;2024-02-15T01:07:16;6.50;;;3.93;;
53389;SDS011;39288;42.970;1.524;2024-02-15T01:08:16;4.93;;;3.00;;
53389;SDS011;39288;42.970;1.524;2024-02-15T01:09:16;4.23;;;2.47;;
53389;SDS011;39288;42.970;1.524;2024-02-15T01:10:17;4.90;;;2.50;;
53389;SDS011;39288;42.970;1.524;2024-02-15T01:11:17;5.10;;;2.00;;
53389;SDS011;39288;42.970;1.524;2024-02-15T01:12:18;3.40;;;1.90;;
53389;SDS011;39288;42.970;1.524;2024-02-15T01:13:19;3.20;;;2.08;;
53389;SDS011;39288;42.970;1.524;2024-02-15T01:14:19;3.30;;;2.13;;
53389;SDS011;39288;42.970;1.524;2024-02-15T01:15:19;3.87;;;2.10;;
53389;SDS011;39288;42.970;1.524;2024-02-15T01:16:20;2.73;;;1.83;;
53389;SDS011;39288;42.970;1.524;2024-02-15T01:17:24;5.68;;;2.17;;
53389;SDS011;39288;42.970;1.524;2024-02-15T01:18:25;3.53;;;2.43;;
53389;SDS011;39288;42.970;1.524;2024-02-15T01:19:26;4.10;;;2.38;;
53389;SDS011;39288;42.970;1.524;2024-02-15T01:20:27;3.77;;;2.27;;
53389;SDS011;39288;42.970;1.524;2024-02-15T01:21:28;4.60;;;1.87;;
53389;SDS011;39288;42.970;1.524;2024-02-15T01:22:28;2.77;;;1.90;;
53389;SDS011;39288;42.970;1.524;2024-02-15T01:23:29;6.07;;;1.97;;
53389;SDS011;39288;42.970;1.524;2024-02-15T01:24:29;3.90;;;1.87;;
53389;SDS011;39288;42.970;1.524;2024-02-15T01:25:30;5.23;;;1.83;;
53389;SDS011;39288;42.970;1.524;2024-02-15T01:26:30;8.00;;;2.07;;
53389;SDS011;39288;42.970;1.524;2024-02-15T01:27:31;5.43;;;2.10;;
53389;SDS011;39288;42.970;1.524;2024-02-15T01:28:31;3.43;;;1.73;;
53389;SDS011;39288;42.970;1.524;2024-02-15T01:29:32;3.63;;;2.33;;
53389;SDS011;39288;42.970;1.524;2024-02-15T01:30:32;9.20;;;2.73;;
53389;SDS011;39288;42.970;1.524;2024-02-15T01:31:33;3.63;;;2.00;;
53389;SDS011;39288;42.970;1.524;2024-02-15T01:32:33;4.40;;;2.33;;
53389;SDS011;39288;42.970;1.524;2024-02-15T01:33:34;5.70;;;3.40;;
53389;SDS011;39288;42.970;1.524;2024-02-15T01:34:34;6.20;;;2.57;;
53389;SDS011;39288;42.970;1.524;2024-02-15T01:35:34;4.63;;;2.97;;
53389;SDS011;39288;42.970;1.524;2024-02-15T01:36:35;6.00;;;3.40;;
53389;SDS011;39288;42.970;1.524;2024-02-15T01:37:36;6.10;;;3.70;;
53389;SDS011;39288;42.970;1.524;2024-02-15T01:38:37;3.20;;;2.28;;
53389;SDS011;39288;42.970;1.524;2024-02-15T01:39:37;5.47;;;2.80;;
53389;SDS011;39288;42.970;1.524;2024-02-15T01:40:37;6.50;;;3.43;;
53389;SDS011;39288;42.970;1.524;2024-02-15T01:41:38;4.63;;;2.57;;
53389;SDS011;39288;42.970;1.524;2024-02-15T01:42:38;8.23;;;2.97;;
53389;SDS011;39288;42.970;1.524;2024-02-15T01:43:43;4.22;;;2.53;;
53389;SDS011;39288;42.970;1.524;2024-02-15T01:44:44;3.60;;;1.98;;
53389;SDS011;39288;42.970;1.524;2024-02-15T01:45:47;6.38;;;2.28;;
53389;SDS011;39288;42.970;1.524;2024-02-15T01:46:48;4.63;;;2.40;;
53389;SDS011;39288;42.970;1.524;2024-02-15T01:47:49;4.78;;;2.33;;
53389;SDS011;39288;42.970;1.524;2024-02-15T01:48:49;2.63;;;1.80;;
53389;SDS011;39288;42.970;1.524;2024-02-15T01:49:50;3.17;;;2.00;;
53389;SDS011;39288;42.970;1.524;2024-02-15T01:50:52;3.78;;;2.22;;
53389;SDS011;39288;42.970;1.524;2024-02-15T01:51:54;5.15;;;2.35;;
53389;SDS011;39288;42.970;1.524;2024-02-15T01:52:57;3.65;;;2.00;;
53389;SDS011;39288;42.970;1.524;2024-02-15T01:53:58;4.25;;;1.90;;
53389;SDS011;39288;42.970;1.524;2024-02-15T01:54:59;4.68;;;2.25;;
53389;SDS011;39288;42.970;1.524;2024-02-15T01:56:07;2.92;;;1.85;;
53389;SDS011;39288;42.970;1.524;2024-02-15T01:57:08;3.70;;;1.60;;
53389;SDS011;39288;42.970;1.524;2024-02-15T01:58:09;4.20;;;2.00;;
53389;SDS011;39288;42.970;1.524;2024-02-15T01:59:10;9.10;;;2.00;;
53389;SDS011;39288;42.970;1.524;2024-02-15T02:00:12;3.58;;;1.90;;
53389;SDS011;39288;42.970;1.524;2024-02-15T02:01:13;4.10;;;2.50;;
53389;SDS011;39288;42.970;1.524;2024-02-15T02:02:15;4.63;;;1.90;;
53389;SDS011;39288;42.970;1.524;2024-02-15T02:03:18;3.65;;;1.90;;
53389;SDS011;39288;42.970;1.524;2024-02-15T02:04:21;4.28;;;1.77;;
53389;SDS011;39288;42.970;1.524;2024-02-15T02:05:21;3.60;;;1.97;;
53389;SDS011;39288;42.970;1.524;2024-02-15T02:06:22;2.50;;;1.80;;
53389;SDS011;39288;42.970;1.524;2024-02-15T02:07:24;4.28;;;1.65;;
53389;SDS011;39288;42.970;1.524;2024-02-15T02:08:24;4.20;;;1.93;;
53389;SDS011;39288;42.970;1.524;2024-02-15T02:09:24;3.97;;;2.10;;
53389;SDS011;39288;42.970;1.524;2024-02-15T02:10:25;3.65;;;1.88;;
53389;SDS011;39288;42.970;1.524;2024-02-15T02:11:27;4.75;;;2.00;;
53389;SDS011;39288;42.970;1.524;2024-02-15T02:12:29;3.60;;;2.25;;
53389;SDS011;39288;42.970;1.524;2024-02-15T02:13:30;5.30;;;2.10;;
53389;SDS011;39288;42.970;1.524;2024-02-15T02:14:31;3.60;;;1.57;;
53389;SDS011;39288;42.970;1.524;2024-02-15T02:15:32;3.30;;;1.70;;
53389;SDS011;39288;42.970;1.524;2024-02-15T02:16:32;5.35;;;2.13;;
53389;SDS011;39288;42.970;1.524;2024-02-15T02:17:33;3.20;;;1.60;;
53389;SDS011;39288;42.970;1.524;2024-02-15T02:18:35;2.92;;;1.98;;
53389;SDS011;39288;42.970;1.524;2024-02-15T02:19:35;5.37;;;1.73;;
53389;SDS011;39288;42.970;1.524;2024-02-15T02:20:38;4.70;;;2.20;;
53389;SDS011;39288;42.970;1.524;2024-02-15T02:21:39;9.00;;;2.93;;
53389;SDS011;39288;42.970;1.524;2024-02-15T02:22:43;4.63;;;2.55;;
53389;SDS011;39288;42.970;1.524;2024-02-15T02:23:48;4.40;;;2.92;;
53389;SDS011;39288;42.970;1.524;2024-02-15T02:25:07;6.03;;;2.42;;
53389;SDS011;39288;42.970;1.524;2024-02-15T02:26:08;3.65;;;2.65;;
53389;SDS011;39288;42.970;1.524;2024-02-15T02:27:10;4.15;;;2.67;;
53389;SDS011;39288;42.970;1.524;2024-02-15T02:28:12;6.78;;;2.90;;
53389;SDS011;39288;42.970;1.524;2024-02-15T02:30:15;10.57;;;2.60;;
53389;SDS011;39288;42.970;1.524;2024-02-15T02:31:17;6.20;;;2.67;;
53389;SDS011;39288;42.970;1.524;2024-02-15T02:32:17;6.80;;;2.50;;
53389;SDS011;39288;42.970;1.524;2024-02-15T02:33:18;5.13;;;3.17;;
53389;SDS011;39288;42.970;1.524;2024-02-15T02:34:18;7.33;;;3.07;;
53389;SDS011;39288;42.970;1.524;2024-02-15T02:35:19;3.90;;;2.70;;
53389;SDS011;39288;42.970;1.524;2024-02-15T02:36:20;5.07;;;2.80;;
53389;SDS011;39288;42.970;1.524;2024-02-15T02:37:21;7.47;;;4.40;;
53389;SDS011;39288;42.970;1.524;2024-02-15T02:38:21;6.17;;;3.10;;
53389;SDS011;39288;42.970;1.524;2024-02-15T02:39:22;5.80;;;2.80;;
53389;SDS011;39288;42.970;1.524;2024-02-15T02:40:23;3.90;;;2.37;;
53389;SDS011;39288;42.970;1.524;2024-02-15T02:41:23;6.13;;;2.97;;
53389;SDS011;39288;42.970;1.524;2024-02-15T02:42:23;3.73;;;2.33;;
53389;SDS011;39288;42.970;1.524;2024-02-15T02:43:24;6.70;;;2.97;;
53389;SDS011;39288;42.970;1.524;2024-02-15T02:44:24;4.23;;;2.27;;
53389;SDS011;39288;42.970;1.524;2024-02-15T02:45:25;5.47;;;2.20;;
53389;SDS011;39288;42.970;1.524;2024-02-15T02:46:25;3.30;;;2.20;;
53389;SDS011;39288;42.970;1.524;2024-02-15T02:47:26;4.40;;;1.97;;
53389;SDS011;39288;42.970;1.524;2024-02-15T02:48:26;4.27;;;2.03;;
53389;SDS011;39288;42.970;1.524;2024-02-15T02:49:27;3.40;;;2.03;;
53389;SDS011;39288;42.970;1.524;2024-02-15T02:50:27;3.07;;;1.87;;
53389;SDS011;39288;42.970;1.524;2024-02-15T02:51:28;4.10;;;2.00;;
53389;SDS011;39288;42.970;1.524;2024-02-15T02:52:28;6.17;;;3.30;;
53389;SDS011;39288;42.970;1.524;2024-02-15T02:53:29;3.43;;;2.00;;
53389;SDS011;39288;42.970;1.524;2024-02-15T02:54:29;4.10;;;2.33;;
53389;SDS011;39288;42.970;1.524;2024-02-15T02:55:30;3.73;;;2.00;;
53389;SDS011;39288;42.970;1.524;2024-02-15T02:56:31;4.93;;;2.13;;
53389;SDS011;39288;42.970;1.524;2024-02-15T02:57:32;2.88;;;1.77;;
53389;SDS011;39288;42.970;1.524;2024-02-15T02:58:32;3.53;;;1.73;;
53389;SDS011;39288;42.970;1.524;2024-02-15T02:59:33;4.40;;;2.50;;
53389;SDS011;39288;42.970;1.524;2024-02-15T03:00:35;5.25;;;2.63;;
53389;SDS011;39288;42.970;1.524;2024-02-15T03:01:37;4.20;;;2.40;;
53389;SDS011;39288;42.970;1.524;2024-02-15T03:02:39;6.25;;;2.42;;
53389;SDS011;39288;42.970;1.524;2024-02-15T03:03:40;6.10;;;2.60;;
53389;SDS011;39288;42.970;1.524;2024-02-15T03:04:40;5.87;;;2.80;;
53389;SDS011;39288;42.970;1.524;2024-02-15T03:05:41;4.37;;;2.83;;
53389;SDS011;39288;42.970;1.524;2024-02-15T03:06:41;7.43;;;3.00;;
53389;SDS011;39288;42.970;1.524;2024-02-15T03:07:42;4.93;;;2.60;;
53389;SDS011;39288;42.970;1.524;2024-02-15T03:08:42;4.63;;;2.67;;
53389;SDS011;39288;42.970;1.524;2024-02-15T03:09:44;4.82;;;2.90;;
53389;SDS011;39288;42.970;1.524;2024-02-15T03:10:45;7.23;;;2.93;;
53389;SDS011;39288;42.970;1.524;2024-02-15T03:11:45;6.93;;;2.70;;
53389;SDS011;39288;42.970;1.524;2024-02-15T03:12:45;5.57;;;2.77;;
53389;SDS011;39288;42.970;1.524;2024-02-15T03:13:49;3.88;;;2.42;;
53389;SDS011;39288;42.970;1.524;2024-02-15T03:14:49;3.87;;;2.57;;
53389;SDS011;39288;42.970;1.524;2024-02-15T03:15:50;5.17;;;2.70;;
53389;SDS011;39288;42.970;1.524;2024-02-15T03:16:51;9.70;;;3.53;;
53389;SDS011;39288;42.970;1.524;2024-02-15T03:17:51;6.30;;;3.43;;
53389;SDS011;39288;42.970;1.524;2024-02-15T03:18:51;4.67;;;2.87;;
53389;SDS011;39288;42.970;1.524;2024-02-15T03:19:52;11.23;;;3.10;;
53389;SDS011;39288;42.970;1.524;2024-02-15T03:20:53;8.37;;;2.77;;
53389;SDS011;39288;42.970;1.524;2024-02-15T03:21:53;5.93;;;2.50;;
53389;SDS011;39288;42.970;1.524;2024-02-15T03:22:54;4.50;;;2.53;;
53389;SDS011;39288;42.970;1.524;2024-02-15T03:23:56;3.63;;;2.22;;
53389;SDS011;39288;42.970;1.524;2024-02-15T03:24:57;4.40;;;2.40;;
53389;SDS011;39288;42.970;1.524;2024-02-15T03:25:57;5.20;;;2.70;;
53389;SDS011;39288;42.970;1.524;2024-02-15T03:26:57;3.90;;;2.43;;
53389;SDS011;39288;42.970;1.524;2024-02-15T03:27:58;5.10;;;2.80;;
53389;SDS011;39288;42.970;1.524;2024-02-15T03:29:03;5.13;;;2.67;;
53389;SDS011;39288;42.970;1.524;2024-02-15T03:30:04;5.13;;;2.80;;
53389;SDS011;39288;42.970;1.524;2024-02-15T03:31:05;5.90;;;2.38;;
53389;SDS011;39288;42.970;1.524;2024-02-15T03:32:06;4.13;;;2.50;;
53389;SDS011;39288;42.970;1.524;2024-02-15T03:33:06;5.33;;;2.60;;
53389;SDS011;39288;42.970;1.524;2024-02-15T03:34:07;4.87;;;2.87;;
53389;SDS011;39288;42.970;1.524;2024-02-15T03:35:07;6.07;;;2.97;;
53389;SDS011;39288;42.970;1.524;2024-02-15T03:36:08;4.77;;;2.40;;
53389;SDS011;39288;42.970;1.524;2024-02-15T03:37:10;6.72;;;2.55;;
53389;SDS011;39288;42.970;1.524;2024-02-15T03:38:10;5.10;;;2.53;;
53389;SDS011;39288;42.970;1.524;2024-02-15T03:40:12;7.82;;;2.58;;
53389;SDS011;39288;42.970;1.524;2024-02-15T03:41:14;6.78;;;2.42;;
53389;SDS011;39288;42.970;1.524;2024-02-15T03:42:14;4.37;;;2.60;;
53389;SDS011;39288;42.970;1.524;2024-02-15T03:43:15;5.83;;;2.27;;
53389;SDS011;39288;42.970;1.524;2024-02-15T03:44:15;3.80;;;2.17;;
53389;SDS011;39288;42.970;1.524;2024-02-15T03:45:18;3.60;;;2.42;;
53389;SDS011;39288;42.970;1.524;2024-02-15T03:46:18;3.70;;;2.23;;
53389;SDS011;39288;42.970;1.524;2024-02-15T03:47:19;4.50;;;2.10;;
53389;SDS011;39288;42.970;1.524;2024-02-15T03:48:19;4.33;;;2.17;;
53389;SDS011;39288;42.970;1.524;2024-02-15T03:49:20;5.13;;;2.17;;
53389;SDS011;39288;42.970;1.524;2024-02-15T03:50:21;7.63;;;3.08;;
53389;SDS011;39288;42.970;1.524;2024-02-15T03:51:21;5.80;;;2.10;;
53389;SDS011;39288;42.970;1.524;2024-02-15T03:52:24;5.22;;;2.28;;
53389;SDS011;39288;42.970;1.524;2024-02-15T03:53:25;5.20;;;1.97;;
53389;SDS011;39288;42.970;1.524;2024-02-15T03:54:26;3.47;;;2.40;;
53389;SDS011;39288;42.970;1.524;2024-02-15T03:55:26;3.13;;;1.73;;
53389;SDS011;39288;42.970;1.524;2024-02-15T03:56:26;3.63;;;2.10;;
53389;SDS011;39288;42.970;1.524;2024-02-15T03:57:28;5.95;;;2.28;;
53389;SDS011;39288;42.970;1.524;2024-02-15T03:58:29;6.83;;;2.10;;
53389;SDS011;39288;42.970;1.524;2024-02-15T03:59:32;4.53;;;2.13;;
53389;SDS011;39288;42.970;1.524;2024-02-15T04:00:34;6.03;;;2.35;;
53389;SDS011;39288;42.970;1.524;2024-02-15T04:01:35;5.27;;;2.60;;
53389;SDS011;39288;42.970;1.524;2024-02-15T04:02:36;5.65;;;2.33;;
53389;SDS011;39288;42.970;1.524;2024-02-15T04:03:38;6.82;;;2.28;;
53389;SDS011;39288;42.970;1.524;2024-02-15T04:04:38;5.87;;;1.90;;
53389;SDS011;39288;42.970;1.524;2024-02-15T04:05:42;4.53;;;2.55;;
53389;SDS011;39288;42.970;1.524;2024-02-15T04:06:42;3.23;;;2.17;;
53389;SDS011;39288;42.970;1.524;2024-02-15T04:07:42;9.67;;;2.90;;
53389;SDS011;39288;42.970;1.524;2024-02-15T04:08:43;5.27;;;2.27;;
53389;SDS011;39288;42.970;1.524;2024-02-15T04:09:44;4.57;;;2.23;;
53389;SDS011;39288;42.970;1.524;2024-02-15T04:11:46;5.50;;;2.38;;
53389;SDS011;39288;42.970;1.524;2024-02-15T04:12:50;4.80;;;2.45;;
53389;SDS011;39288;42.970;1.524;2024-02-15T04:13:50;3.93;;;2.27;;
53389;SDS011;39288;42.970;1.524;2024-02-15T04:14:50;4.00;;;2.07;;
53389;SDS011;39288;42.970;1.524;2024-02-15T04:15:51;4.63;;;2.10;;
53389;SDS011;39288;42.970;1.524;2024-02-15T04:16:53;3.17;;;2.13;;
53389;SDS011;39288;42.970;1.524;2024-02-15T04:17:53;5.67;;;2.33;;
53389;SDS011;39288;42.970;1.524;2024-02-15T04:18:56;9.00;;;2.53;;
53389;SDS011;39288;42.970;1.524;2024-02-15T04:19:59;3.85;;;1.95;;
53389;SDS011;39288;42.970;1.524;2024-02-15T04:21:00;3.97;;;2.40;;
53389;SDS011;39288;42.970;1.524;2024-02-15T04:22:00;5.67;;;2.70;;
53389;SDS011;39288;42.970;1.524;2024-02-15T04:23:04;3.33;;;2.10;;
53389;SDS011;39288;42.970;1.524;2024-02-15T04:24:04;4.40;;;2.30;;
53389;SDS011;39288;42.970;1.524;2024-02-15T04:25:06;3.33;;;1.97;;
53389;SDS011;39288;42.970;1.524;2024-02-15T04:26:09;4.03;;;2.47;;
53389;SDS011;39288;42.970;1.524;2024-02-15T04:27:13;3.55;;;2.03;;
53389;SDS011;39288;42.970;1.524;2024-02-15T04:28:14;3.20;;;2.30;;
53389;SDS011;39288;42.970;1.524;2024-02-15T04:29:15;4.40;;;2.73;;
53389;SDS011;39288;42.970;1.524;2024-02-15T04:30:15;5.82;;;2.70;;
53389;SDS011;39288;42.970;1.524;2024-02-15T04:31:16;4.83;;;2.10;;
53389;SDS011;39288;42.970;1.524;2024-02-15T04:32:16;5.70;;;2.43;;
53389;SDS011;39288;42.970;1.524;2024-02-15T04:33:19;9.00;;;2.67;;
53389;SDS011;39288;42.970;1.524;2024-02-15T04:34:19;3.53;;;2.10;;
53389;SDS011;39288;42.970;1.524;2024-02-15T04:35:20;5.20;;;2.10;;
53389;SDS011;39288;42.970;1.524;2024-02-15T04:36:21;3.37;;;2.23;;
53389;SDS011;39288;42.970;1.524;2024-02-15T04:37:25;5.43;;;2.30;;
53389;SDS011;39288;42.970;1.524;2024-02-15T04:39:27;5.32;;;2.40;;
53389;SDS011;39288;42.970;1.524;2024-02-15T04:40:30;6.15;;;2.78;;
53389;SDS011;39288;42.970;1.524;2024-02-15T04:41:30;5.00;;;2.47;;
53389;SDS011;39288;42.970;1.524;2024-02-15T04:42:31;5.20;;;2.13;;
53389;SDS011;39288;42.970;1.524;2024-02-15T04:43:32;4.47;;;2.40;;
53389;SDS011;39288;42.970;1.524;2024-02-15T04:44:33;4.10;;;2.03;;
53389;SDS011;39288;42.970;1.524;2024-02-15T04:45:35;2.63;;;2.00;;
53389;SDS011;39288;42.970;1.524;2024-02-15T04:46:35;5.00;;;2.47;;
53389;SDS011;39288;42.970;1.524;2024-02-15T04:47:36;5.43;;;2.73;;
53389;SDS011;39288;42.970;1.524;2024-02-15T04:48:37;5.33;;;2.40;;
53389;SDS011;39288;42.970;1.524;2024-02-15T04:49:37;4.10;;;1.93;;
53389;SDS011;39288;42.970;1.524;2024-02-15T04:50:38;5.73;;;2.00;;
53389;SDS011;39288;42.970;1.524;2024-02-15T04:51:39;4.80;;;2.45;;
53389;SDS011;39288;42.970;1.524;2024-02-15T04:52:41;6.45;;;2.45;;
53389;SDS011;39288;42.970;1.524;2024-02-15T04:53:45;3.63;;;2.30;;
53389;SDS011;39288;42.970;1.524;2024-02-15T04:54:46;4.75;;;2.72;;
53389;SDS011;39288;42.970;1.524;2024-02-15T04:55:47;5.33;;;2.30;;
53389;SDS011;39288;42.970;1.524;2024-02-15T04:56:47;5.30;;;3.00;;
53389;SDS011;39288;42.970;1.524;2024-02-15T04:57:47;3.20;;;2.10;;
53389;SDS011;39288;42.970;1.524;2024-02-15T04:58:48;4.57;;;2.50;;
53389;SDS011;39288;42.970;1.524;2024-02-15T04:59:50;7.68;;;2.85;;
53389;SDS011;39288;42.970;1.524;2024-02-15T05:00:51;7.80;;;3.30;;
53389;SDS011;39288;42.970;1.524;2024-02-15T05:01:54;4.55;;;2.55;;
53389;SDS011;39288;42.970;1.524;2024-02-15T05:02:56;3.88;;;2.50;;
53389;SDS011;39288;42.970;1.524;2024-02-15T05:03:56;4.27;;;2.20;;
53389;SDS011;39288;42.970;1.524;2024-02-15T05:04:57;4.17;;;2.43;;
53389;SDS011;39288;42.970;1.524;2024-02-15T05:05:57;6.27;;;2.50;;
53389;SDS011;39288;42.970;1.524;2024-02-15T05:06:57;5.60;;;2.90;;
53389;SDS011;39288;42.970;1.524;2024-02-15T05:07:58;4.40;;;2.33;;
53389;SDS011;39288;42.970;1.524;2024-02-15T05:09:01;5.20;;;2.20;;
53389;SDS011;39288;42.970;1.524;2024-02-15T05:10:07;4.43;;;2.40;;
53389;SDS011;39288;42.970;1.524;2024-02-15T05:11:09;4.43;;;2.55;;
53389;SDS011;39288;42.970;1.524;2024-02-15T05:12:21;5.20;;;2.30;;
53389;SDS011;39288;42.970;1.524;2024-02-15T05:13:24;4.25;;;2.40;;
53389;SDS011;39288;42.970;1.524;2024-02-15T05:14:25;5.85;;;2.30;;
53389;SDS011;39288;42.970;1.524;2024-02-15T05:15:26;4.45;;;2.00;;
53389;SDS011;39288;42.970;1.524;2024-02-15T05:16:27;3.37;;;2.10;;
53389;SDS011;39288;42.970;1.524;2024-02-15T05:17:28;3.47;;;2.13;;
53389;SDS011;39288;42.970;1.524;2024-02-15T05:18:31;6.88;;;2.67;;
53389;SDS011;39288;42.970;1.524;2024-02-15T05:19:31;4.70;;;2.70;;
53389;SDS011;39288;42.970;1.524;2024-02-15T05:20:32;6.20;;;2.60;;
53389;SDS011;39288;42.970;1.524;2024-02-15T05:21:34;5.03;;;2.50;;
53389;SDS011;39288;42.970;1.524;2024-02-15T05:22:34;5.43;;;2.53;;
53389;SDS011;39288;42.970;1.524;2024-02-15T05:23:36;3.58;;;2.58;;
53389;SDS011;39288;42.970;1.524;2024-02-15T05:24:39;5.57;;;2.85;;
53389;SDS011;39288;42.970;1.524;2024-02-15T05:25:40;3.80;;;2.30;;
53389;SDS011;39288;42.970;1.524;2024-02-15T05:26:44;4.90;;;2.95;;
53389;SDS011;39288;42.970;1.524;2024-02-15T05:27:51;5.10;;;2.58;;
53389;SDS011;39288;42.970;1.524;2024-02-15T05:28:53;3.83;;;2.25;;
53389;SDS011;39288;42.970;1.524;2024-02-15T05:29:54;3.90;;;2.53;;
53389;SDS011;39288;42.970;1.524;2024-02-15T05:31:08;5.53;;;2.70;;
53389;SDS011;39288;42.970;1.524;2024-02-15T05:32:20;5.00;;;2.42;;
53389;SDS011;39288;42.970;1.524;2024-02-15T05:33:21;4.63;;;2.72;;
53389;SDS011;39288;42.970;1.524;2024-02-15T05:34:21;6.03;;;2.80;;
53389;SDS011;39288;42.970;1.524;2024-02-15T05:35:22;3.27;;;2.67;;
53389;SDS011;39288;42.970;1.524;2024-02-15T05:36:23;5.28;;;2.67;;
53389;SDS011;39288;42.970;1.524;2024-02-15T05:38:25;5.38;;;2.50;;
53389;SDS011;39288;42.970;1.524;2024-02-15T05:39:29;4.65;;;2.50;;
53389;SDS011;39288;42.970;1.524;2024-02-15T05:40:29;6.13;;;3.03;;
53389;SDS011;39288;42.970;1.524;2024-02-15T05:41:30;5.97;;;2.45;;
53389;SDS011;39288;42.970;1.524;2024-02-15T05:42:34;5.03;;;2.65;;
53389;SDS011;39288;42.970;1.524;2024-02-15T05:43:35;5.63;;;2.83;;
53389;SDS011;39288;42.970;1.524;2024-02-15T05:44:38;5.82;;;3.15;;
53389;SDS011;39288;42.970;1.524;2024-02-15T05:45:38;4.63;;;2.97;;
53389;SDS011;39288;42.970;1.524;2024-02-15T05:46:39;4.93;;;2.90;;
53389;SDS011;39288;42.970;1.524;2024-02-15T05:47:40;6.20;;;2.58;;
53389;SDS011;39288;42.970;1.524;2024-02-15T05:48:41;4.27;;;2.67;;
53389;SDS011;39288;42.970;1.524;2024-02-15T05:49:41;4.80;;;2.50;;
53389;SDS011;39288;42.970;1.524;2024-02-15T05:50:41;9.37;;;3.07;;
53389;SDS011;39288;42.970;1.524;2024-02-15T05:51:42;4.10;;;2.67;;
53389;SDS011;39288;42.970;1.524;2024-02-15T05:52:43;4.20;;;2.30;;
53389;SDS011;39288;42.970;1.524;2024-02-15T05:53:43;5.23;;;2.40;;
53389;SDS011;39288;42.970;1.524;2024-02-15T05:54:44;4.43;;;2.03;;
53389;SDS011;39288;42.970;1.524;2024-02-15T05:55:45;5.65;;;2.35;;
53389;SDS011;39288;42.970;1.524;2024-02-15T05:56:46;3.60;;;2.70;;
53389;SDS011;39288;42.970;1.524;2024-02-15T05:57:51;7.25;;;2.50;;
53389;SDS011;39288;42.970;1.524;2024-02-15T05:58:52;5.03;;;2.40;;
53389;SDS011;39288;42.970;1.524;2024-02-15T05:59:53;7.60;;;2.97;;
53389;SDS011;39288;42.970;1.524;2024-02-15T06:00:53;3.67;;;2.37;;
53389;SDS011;39288;42.970;1.524;2024-02-15T06:01:55;4.97;;;2.78;;
53389;SDS011;39288;42.970;1.524;2024-02-15T06:02:55;3.40;;;2.60;;
53389;SDS011;39288;42.970;1.524;2024-02-15T06:03:56;4.23;;;2.90;;
53389;SDS011;39288;42.970;1.524;2024-02-15T06:04:56;6.00;;;3.27;;
53389;SDS011;39288;42.970;1.524;2024-02-15T06:06:01;4.25;;;2.58;;
53389;SDS011;39288;42.970;1.524;2024-02-15T06:07:06;8.10;;;3.13;;
53389;SDS011;39288;42.970;1.524;2024-02-15T06:08:10;3.72;;;2.70;;
53389;SDS011;39288;42.970;1.524;2024-02-15T06:09:12;3.88;;;3.05;;
53389;SDS011;39288;42.970;1.524;2024-02-15T06:10:12;8.47;;;2.83;;
53389;SDS011;39288;42.970;1.524;2024-02-15T06:11:18;5.10;;;2.97;;
53389;SDS011;39288;42.970;1.524;2024-02-15T06:12:20;5.28;;;2.60;;
53389;SDS011;39288;42.970;1.524;2024-02-15T06:13:21;6.07;;;2.97;;
53389;SDS011;39288;42.970;1.524;2024-02-15T06:14:22;5.05;;;2.67;;
53389;SDS011;39288;42.970;1.524;2024-02-15T06:15:22;3.07;;;2.30;;